Rochester, New Hampshire
Current Conditions -  °F | °C
As of 5:51 AM on Friday 24 Oct 2014 (Local Time) from KDAW Reporting Station
Light Rain Light Rain  
Wind Chill: 44°   Ceiling: 1500
Heat Index: 48°   Visibility: 6mi
Dew Point: 46°   Wind: 9mph
Humidity: 93%   Direction: 340°NNW
Pressure: 29.68"   Gusts: NA
Location:  43.31°N, 70.98°W
Report Text: KDAW 240951Z AUTO 34008KT 6SM -RA BR FEW008 BKN015 OVC024 09/08 A2968 RMK AO2 SLP050 P0001 T00890078
Loading
Personal Weather Stations






























Interactive Weather Map
Tropical Storm Tracking
New forecast layout! Learn more

10-Day Weather Forecast

Advertisements
Track Severe Weather on mobile